e-Mail: Password: Lost your password? Click here. - Register a new user

c h a v e z j u a r e z . c o m

Weather - Tiempo - Wetter - Temps

METAR DATA MMMX (Mexico City)

Mexico City / Licenci, Mexico (MMMX) 19-26N 099-06W
Oct 16, 2018 - 07:49 AM EDT / 2018.10.16 1149 UTC
Wind: from the WNW (300 degrees) at 9 MPH (8 KT):0
Visibility: 10 mile(s):0
Sky conditions: mostly cloudy
Temperature: 59 F (15 C)
Dew Point: 53 F (12 C)
Relative Humidity: 82%
Pressure (altimeter): 30.26 in. Hg (1024 hPa)
Pressure tendency: 0.01 inches (0.3 hPa) higher than three hours ago
ob: MMMX 161149Z 30008KT 10SM BKN020 BKN200 15/12 A3026 NOSIG RMK SLP061 52003 900 8/508 AC
cycle: 12

Mexico City

St. Prex




Current weather alarms for Switzerland


www.wetteralarm.ch